sensor_id;sensor_type;location;lat;lon;timestamp;temperature;humidity
10848;DHT22;5477;48.806;9.154;2024-02-21T00:02:23;6.60;99.90
10848;DHT22;5477;48.806;9.154;2024-02-21T00:04:51;6.60;99.90
10848;DHT22;5477;48.806;9.154;2024-02-21T00:07:21;6.60;99.90
10848;DHT22;5477;48.806;9.154;2024-02-21T00:09:49;6.60;99.90
10848;DHT22;5477;48.806;9.154;2024-02-21T00:12:17;6.60;99.90
10848;DHT22;5477;48.806;9.154;2024-02-21T00:14:45;6.60;99.90
10848;DHT22;5477;48.806;9.154;2024-02-21T00:17:13;6.70;99.90
10848;DHT22;5477;48.806;9.154;2024-02-21T00:19:41;6.70;99.90
10848;DHT22;5477;48.806;9.154;2024-02-21T00:22:09;6.70;99.90
10848;DHT22;5477;48.806;9.154;2024-02-21T00:24:39;6.70;99.90
10848;DHT22;5477;48.806;9.154;2024-02-21T00:27:07;6.80;99.90
10848;DHT22;5477;48.806;9.154;2024-02-21T00:29:35;6.80;99.90
10848;DHT22;5477;48.806;9.154;2024-02-21T00:32:04;6.80;99.90
10848;DHT22;5477;48.806;9.154;2024-02-21T00:34:32;6.90;99.90
10848;DHT22;5477;48.806;9.154;2024-02-21T00:37:00;6.90;99.90
10848;DHT22;5477;48.806;9.154;2024-02-21T00:39:28;6.90;99.90
10848;DHT22;5477;48.806;9.154;2024-02-21T00:41:58;6.90;99.90
10848;DHT22;5477;48.806;9.154;2024-02-21T00:44:26;6.90;99.90
10848;DHT22;5477;48.806;9.154;2024-02-21T00:46:54;6.90;99.90
10848;DHT22;5477;48.806;9.154;2024-02-21T00:49:22;6.90;99.90
10848;DHT22;5477;48.806;9.154;2024-02-21T00:51:50;7.00;99.90
10848;DHT22;5477;48.806;9.154;2024-02-21T00:54:18;7.00;99.90
10848;DHT22;5477;48.806;9.154;2024-02-21T00:56:47;7.00;99.90
10848;DHT22;5477;48.806;9.154;2024-02-21T00:59:16;7.00;99.90
10848;DHT22;5477;48.806;9.154;2024-02-21T01:01:44;7.00;99.90
10848;DHT22;5477;48.806;9.154;2024-02-21T01:04:12;7.00;99.90
10848;DHT22;5477;48.806;9.154;2024-02-21T01:06:40;7.00;99.90
10848;DHT22;5477;48.806;9.154;2024-02-21T01:09:10;7.00;99.90
10848;DHT22;5477;48.806;9.154;2024-02-21T01:11:38;7.00;99.90
10848;DHT22;5477;48.806;9.154;2024-02-21T01:14:07;7.00;99.90
10848;DHT22;5477;48.806;9.154;2024-02-21T01:16:36;7.00;99.90
10848;DHT22;5477;48.806;9.154;2024-02-21T01:19:04;7.00;99.90
10848;DHT22;5477;48.806;9.154;2024-02-21T01:21:32;7.00;99.90
10848;DHT22;5477;48.806;9.154;2024-02-21T01:24:00;7.00;99.90
10848;DHT22;5477;48.806;9.154;2024-02-21T01:26:29;7.00;99.90
10848;DHT22;5477;48.806;9.154;2024-02-21T01:28:57;7.00;99.90
10848;DHT22;5477;48.806;9.154;2024-02-21T01:31:25;7.00;99.90
10848;DHT22;5477;48.806;9.154;2024-02-21T01:33:55;7.00;99.90
10848;DHT22;5477;48.806;9.154;2024-02-21T01:36:23;7.00;99.90
10848;DHT22;5477;48.806;9.154;2024-02-21T01:38:51;7.00;99.90
10848;DHT22;5477;48.806;9.154;2024-02-21T01:41:19;7.00;99.90
10848;DHT22;5477;48.806;9.154;2024-02-21T01:43:47;7.00;99.90
10848;DHT22;5477;48.806;9.154;2024-02-21T01:46:15;7.00;99.90
10848;DHT22;5477;48.806;9.154;2024-02-21T01:48:43;7.00;99.90
10848;DHT22;5477;48.806;9.154;2024-02-21T01:51:15;7.00;99.90
10848;DHT22;5477;48.806;9.154;2024-02-21T01:53:44;7.00;99.90
10848;DHT22;5477;48.806;9.154;2024-02-21T01:56:13;7.00;99.90
10848;DHT22;5477;48.806;9.154;2024-02-21T01:58:42;7.00;99.90
10848;DHT22;5477;48.806;9.154;2024-02-21T02:01:11;7.00;99.90
10848;DHT22;5477;48.806;9.154;2024-02-21T02:03:40;7.00;99.90
10848;DHT22;5477;48.806;9.154;2024-02-21T02:06:09;7.00;99.90
10848;DHT22;5477;48.806;9.154;2024-02-21T02:08:38;7.00;99.90
10848;DHT22;5477;48.806;9.154;2024-02-21T02:11:06;7.00;99.90
10848;DHT22;5477;48.806;9.154;2024-02-21T02:13:35;7.00;99.90
10848;DHT22;5477;48.806;9.154;2024-02-21T02:16:03;7.00;99.90
10848;DHT22;5477;48.806;9.154;2024-02-21T02:18:32;7.10;99.90
10848;DHT22;5477;48.806;9.154;2024-02-21T02:21:00;7.00;99.90
10848;DHT22;5477;48.806;9.154;2024-02-21T02:23:30;7.00;99.90
10848;DHT22;5477;48.806;9.154;2024-02-21T02:25:59;7.10;99.90
10848;DHT22;5477;48.806;9.154;2024-02-21T02:28:28;7.00;99.90
10848;DHT22;5477;48.806;9.154;2024-02-21T02:30:56;7.00;99.90
10848;DHT22;5477;48.806;9.154;2024-02-21T02:33:24;7.10;99.90
10848;DHT22;5477;48.806;9.154;2024-02-21T02:35:52;7.10;99.90
10848;DHT22;5477;48.806;9.154;2024-02-21T02:38:20;7.10;99.90
10848;DHT22;5477;48.806;9.154;2024-02-21T02:40:49;7.10;99.90
10848;DHT22;5477;48.806;9.154;2024-02-21T02:43:17;7.20;99.90
10848;DHT22;5477;48.806;9.154;2024-02-21T02:45:45;7.20;99.90
10848;DHT22;5477;48.806;9.154;2024-02-21T02:48:13;7.20;99.90
10848;DHT22;5477;48.806;9.154;2024-02-21T02:50:42;7.20;99.90
10848;DHT22;5477;48.806;9.154;2024-02-21T02:53:10;7.20;99.90
10848;DHT22;5477;48.806;9.154;2024-02-21T02:55:38;7.20;99.90
10848;DHT22;5477;48.806;9.154;2024-02-21T02:58:07;7.20;99.90
10848;DHT22;5477;48.806;9.154;2024-02-21T03:00:35;7.20;99.90
10848;DHT22;5477;48.806;9.154;2024-02-21T03:03:04;7.10;99.90
10848;DHT22;5477;48.806;9.154;2024-02-21T03:05:32;7.20;99.90
10848;DHT22;5477;48.806;9.154;2024-02-21T03:08:00;7.20;99.90
10848;DHT22;5477;48.806;9.154;2024-02-21T03:10:28;7.20;99.90
10848;DHT22;5477;48.806;9.154;2024-02-21T03:12:56;7.10;99.90
10848;DHT22;5477;48.806;9.154;2024-02-21T03:15:26;7.20;99.90
10848;DHT22;5477;48.806;9.154;2024-02-21T03:17:54;7.30;99.90
10848;DHT22;5477;48.806;9.154;2024-02-21T03:20:23;7.40;99.90
10848;DHT22;5477;48.806;9.154;2024-02-21T03:22:50;7.30;99.90
10848;DHT22;5477;48.806;9.154;2024-02-21T03:25:18;7.30;99.90
10848;DHT22;5477;48.806;9.154;2024-02-21T03:27:46;7.30;99.90
10848;DHT22;5477;48.806;9.154;2024-02-21T03:30:15;7.20;99.90
10848;DHT22;5477;48.806;9.154;2024-02-21T03:32:44;7.30;99.90
10848;DHT22;5477;48.806;9.154;2024-02-21T03:35:12;7.20;99.90
10848;DHT22;5477;48.806;9.154;2024-02-21T03:37:40;7.30;99.90
10848;DHT22;5477;48.806;9.154;2024-02-21T03:40:09;7.30;99.90
10848;DHT22;5477;48.806;9.154;2024-02-21T03:42:37;7.40;99.90
10848;DHT22;5477;48.806;9.154;2024-02-21T03:45:06;7.30;99.90
10848;DHT22;5477;48.806;9.154;2024-02-21T03:47:34;7.40;99.90
10848;DHT22;5477;48.806;9.154;2024-02-21T03:52:33;7.50;99.90
10848;DHT22;5477;48.806;9.154;2024-02-21T03:55:01;7.40;99.90
10848;DHT22;5477;48.806;9.154;2024-02-21T03:57:29;7.40;99.90
10848;DHT22;5477;48.806;9.154;2024-02-21T03:59:57;7.40;99.90
10848;DHT22;5477;48.806;9.154;2024-02-21T04:02:25;7.30;99.90
10848;DHT22;5477;48.806;9.154;2024-02-21T04:04:53;7.30;99.90
10848;DHT22;5477;48.806;9.154;2024-02-21T04:07:23;7.30;99.90
10848;DHT22;5477;48.806;9.154;2024-02-21T04:09:51;7.30;99.90
10848;DHT22;5477;48.806;9.154;2024-02-21T04:12:19;7.30;99.90
10848;DHT22;5477;48.806;9.154;2024-02-21T04:14:47;7.30;99.90
10848;DHT22;5477;48.806;9.154;2024-02-21T04:17:15;7.30;99.90
10848;DHT22;5477;48.806;9.154;2024-02-21T04:19:43;7.30;99.90
10848;DHT22;5477;48.806;9.154;2024-02-21T04:22:11;7.30;99.90
10848;DHT22;5477;48.806;9.154;2024-02-21T04:24:41;7.20;99.90
10848;DHT22;5477;48.806;9.154;2024-02-21T04:27:09;7.10;99.90
10848;DHT22;5477;48.806;9.154;2024-02-21T04:29:37;7.10;99.90
10848;DHT22;5477;48.806;9.154;2024-02-21T04:32:06;7.10;99.90
10848;DHT22;5477;48.806;9.154;2024-02-21T04:34:35;7.10;99.90
10848;DHT22;5477;48.806;9.154;2024-02-21T04:37:03;7.10;99.90
10848;DHT22;5477;48.806;9.154;2024-02-21T04:39:31;7.00;99.90
10848;DHT22;5477;48.806;9.154;2024-02-21T04:42:01;7.00;99.90
10848;DHT22;5477;48.806;9.154;2024-02-21T04:44:29;7.00;99.90
10848;DHT22;5477;48.806;9.154;2024-02-21T04:46:58;7.00;99.90
10848;DHT22;5477;48.806;9.154;2024-02-21T04:49:26;6.90;99.90
10848;DHT22;5477;48.806;9.154;2024-02-21T04:51:54;6.90;99.90
10848;DHT22;5477;48.806;9.154;2024-02-21T04:54:22;6.90;99.90
10848;DHT22;5477;48.806;9.154;2024-02-21T04:56:50;7.00;99.90
10848;DHT22;5477;48.806;9.154;2024-02-21T04:59:21;7.10;99.90
10848;DHT22;5477;48.806;9.154;2024-02-21T05:01:49;7.00;99.90
10848;DHT22;5477;48.806;9.154;2024-02-21T05:04:17;7.00;99.90
10848;DHT22;5477;48.806;9.154;2024-02-21T05:06:45;7.00;99.90
10848;DHT22;5477;48.806;9.154;2024-02-21T05:09:14;7.00;99.90
10848;DHT22;5477;48.806;9.154;2024-02-21T05:11:42;6.90;99.90
10848;DHT22;5477;48.806;9.154;2024-02-21T05:14:10;6.80;99.90
10848;DHT22;5477;48.806;9.154;2024-02-21T05:16:40;6.80;99.90
10848;DHT22;5477;48.806;9.154;2024-02-21T05:19:08;6.60;99.90
10848;DHT22;5477;48.806;9.154;2024-02-21T05:21:36;6.60;99.90
10848;DHT22;5477;48.806;9.154;2024-02-21T05:24:05;6.50;99.90
10848;DHT22;5477;48.806;9.154;2024-02-21T05:26:33;6.40;99.90
10848;DHT22;5477;48.806;9.154;2024-02-21T05:29:01;6.30;99.90
10848;DHT22;5477;48.806;9.154;2024-02-21T05:31:55;6.30;99.90
10848;DHT22;5477;48.806;9.154;2024-02-21T05:34:24;6.30;99.90
10848;DHT22;5477;48.806;9.154;2024-02-21T05:36:53;6.20;99.90
10848;DHT22;5477;48.806;9.154;2024-02-21T05:39:22;6.30;99.90
10848;DHT22;5477;48.806;9.154;2024-02-21T05:41:50;6.30;99.90
10848;DHT22;5477;48.806;9.154;2024-02-21T05:44:19;6.20;99.90
10848;DHT22;5477;48.806;9.154;2024-02-21T05:46:50;6.20;99.90
10848;DHT22;5477;48.806;9.154;2024-02-21T05:49:18;6.20;99.90
10848;DHT22;5477;48.806;9.154;2024-02-21T05:51:46;6.20;99.90
10848;DHT22;5477;48.806;9.154;2024-02-21T05:54:15;6.20;99.90
10848;DHT22;5477;48.806;9.154;2024-02-21T05:56:44;6.20;99.90
10848;DHT22;5477;48.806;9.154;2024-02-21T05:59:14;6.20;99.90
10848;DHT22;5477;48.806;9.154;2024-02-21T06:01:42;6.20;99.90
10848;DHT22;5477;48.806;9.154;2024-02-21T06:04:11;6.20;99.90
10848;DHT22;5477;48.806;9.154;2024-02-21T06:06:39;6.20;99.90
10848;DHT22;5477;48.806;9.154;2024-02-21T06:09:08;6.20;99.90
10848;DHT22;5477;48.806;9.154;2024-02-21T06:11:36;6.20;99.90
10848;DHT22;5477;48.806;9.154;2024-02-21T06:14:05;6.20;99.90
10848;DHT22;5477;48.806;9.154;2024-02-21T06:16:33;6.20;99.90
10848;DHT22;5477;48.806;9.154;2024-02-21T06:19:01;6.20;99.90
10848;DHT22;5477;48.806;9.154;2024-02-21T06:21:33;6.10;99.90
10848;DHT22;5477;48.806;9.154;2024-02-21T06:24:01;6.00;99.90
10848;DHT22;5477;48.806;9.154;2024-02-21T06:26:30;6.00;99.90
10848;DHT22;5477;48.806;9.154;2024-02-21T06:28:58;5.90;99.90
10848;DHT22;5477;48.806;9.154;2024-02-21T06:31:27;5.90;99.90
10848;DHT22;5477;48.806;9.154;2024-02-21T06:33:55;5.90;99.90
10848;DHT22;5477;48.806;9.154;2024-02-21T06:36:23;5.90;99.90
10848;DHT22;5477;48.806;9.154;2024-02-21T06:38:53;5.90;99.90
10848;DHT22;5477;48.806;9.154;2024-02-21T06:41:21;6.00;99.90
10848;DHT22;5477;48.806;9.154;2024-02-21T06:43:50;6.00;99.90
10848;DHT22;5477;48.806;9.154;2024-02-21T06:46:25;6.10;99.90
10848;DHT22;5477;48.806;9.154;2024-02-21T06:48:53;6.10;99.90
10848;DHT22;5477;48.806;9.154;2024-02-21T06:51:23;6.10;99.90
10848;DHT22;5477;48.806;9.154;2024-02-21T06:53:53;6.10;99.90
10848;DHT22;5477;48.806;9.154;2024-02-21T06:56:23;6.00;99.90
10848;DHT22;5477;48.806;9.154;2024-02-21T06:58:53;6.00;99.90
10848;DHT22;5477;48.806;9.154;2024-02-21T07:01:22;6.00;99.90
10848;DHT22;5477;48.806;9.154;2024-02-21T07:03:50;6.10;99.90
10848;DHT22;5477;48.806;9.154;2024-02-21T07:06:18;6.10;99.90
10848;DHT22;5477;48.806;9.154;2024-02-21T07:08:46;6.10;99.90
10848;DHT22;5477;48.806;9.154;2024-02-21T07:11:16;6.20;99.90
10848;DHT22;5477;48.806;9.154;2024-02-21T07:13:44;6.30;99.90
10848;DHT22;5477;48.806;9.154;2024-02-21T07:16:12;6.30;99.90
10848;DHT22;5477;48.806;9.154;2024-02-21T07:18:40;6.30;99.90
10848;DHT22;5477;48.806;9.154;2024-02-21T07:21:08;6.40;99.90
10848;DHT22;5477;48.806;9.154;2024-02-21T07:23:36;6.50;99.90
10848;DHT22;5477;48.806;9.154;2024-02-21T07:26:04;6.50;99.90
10848;DHT22;5477;48.806;9.154;2024-02-21T07:28:33;6.50;99.90
10848;DHT22;5477;48.806;9.154;2024-02-21T07:31:02;6.60;99.90
10848;DHT22;5477;48.806;9.154;2024-02-21T07:33:30;6.80;99.90
10848;DHT22;5477;48.806;9.154;2024-02-21T07:35:59;6.90;99.90
10848;DHT22;5477;48.806;9.154;2024-02-21T07:38:27;7.00;99.90
10848;DHT22;5477;48.806;9.154;2024-02-21T07:40:55;7.10;99.90
10848;DHT22;5477;48.806;9.154;2024-02-21T07:43:23;7.20;99.90
10848;DHT22;5477;48.806;9.154;2024-02-21T07:45:54;7.20;99.90
10848;DHT22;5477;48.806;9.154;2024-02-21T07:48:22;7.30;99.90
10848;DHT22;5477;48.806;9.154;2024-02-21T07:50:53;7.40;99.90
10848;DHT22;5477;48.806;9.154;2024-02-21T07:53:21;7.50;99.90
10848;DHT22;5477;48.806;9.154;2024-02-21T07:55:49;7.60;99.90
10848;DHT22;5477;48.806;9.154;2024-02-21T07:58:17;7.70;99.90
10848;DHT22;5477;48.806;9.154;2024-02-21T08:00:45;7.80;99.90
10848;DHT22;5477;48.806;9.154;2024-02-21T08:03:14;7.90;99.90
10848;DHT22;5477;48.806;9.154;2024-02-21T08:05:44;7.90;99.90
10848;DHT22;5477;48.806;9.154;2024-02-21T08:08:12;8.00;99.90
10848;DHT22;5477;48.806;9.154;2024-02-21T08:10:45;8.10;99.90
10848;DHT22;5477;48.806;9.154;2024-02-21T08:13:13;8.20;99.90
10848;DHT22;5477;48.806;9.154;2024-02-21T08:15:41;8.20;99.90
10848;DHT22;5477;48.806;9.154;2024-02-21T08:18:09;8.30;99.90
10848;DHT22;5477;48.806;9.154;2024-02-21T08:20:39;8.40;99.90
10848;DHT22;5477;48.806;9.154;2024-02-21T08:23:07;8.50;99.90
10848;DHT22;5477;48.806;9.154;2024-02-21T08:25:35;8.60;99.90
10848;DHT22;5477;48.806;9.154;2024-02-21T08:28:04;8.70;99.90
10848;DHT22;5477;48.806;9.154;2024-02-21T08:30:32;8.80;99.90
10848;DHT22;5477;48.806;9.154;2024-02-21T08:33:00;8.90;99.90
10848;DHT22;5477;48.806;9.154;2024-02-21T08:35:30;8.90;99.90
10848;DHT22;5477;48.806;9.154;2024-02-21T08:37:59;9.00;99.90
10848;DHT22;5477;48.806;9.154;2024-02-21T08:40:27;9.10;99.90
10848;DHT22;5477;48.806;9.154;2024-02-21T08:42:55;9.20;99.90
10848;DHT22;5477;48.806;9.154;2024-02-21T08:45:23;9.30;99.90
10848;DHT22;5477;48.806;9.154;2024-02-21T08:47:51;9.30;99.90
10848;DHT22;5477;48.806;9.154;2024-02-21T08:50:19;9.30;99.90
10848;DHT22;5477;48.806;9.154;2024-02-21T08:52:55;9.30;99.90
10848;DHT22;5477;48.806;9.154;2024-02-21T08:55:25;9.40;99.90
10848;DHT22;5477;48.806;9.154;2024-02-21T08:57:53;9.40;99.90
10848;DHT22;5477;48.806;9.154;2024-02-21T09:00:21;9.40;99.90
10848;DHT22;5477;48.806;9.154;2024-02-21T09:02:54;9.50;99.90
10848;DHT22;5477;48.806;9.154;2024-02-21T09:05:22;9.50;99.90
10848;DHT22;5477;48.806;9.154;2024-02-21T09:07:52;9.50;99.90
10848;DHT22;5477;48.806;9.154;2024-02-21T09:10:20;9.50;99.90
10848;DHT22;5477;48.806;9.154;2024-02-21T09:12:50;9.60;99.90
10848;DHT22;5477;48.806;9.154;2024-02-21T09:15:18;9.60;99.90
10848;DHT22;5477;48.806;9.154;2024-02-21T09:17:46;9.70;99.90
10848;DHT22;5477;48.806;9.154;2024-02-21T09:20:14;9.80;99.90
10848;DHT22;5477;48.806;9.154;2024-02-21T09:22:43;9.80;99.90
10848;DHT22;5477;48.806;9.154;2024-02-21T09:25:12;9.90;99.90
10848;DHT22;5477;48.806;9.154;2024-02-21T09:27:40;9.90;99.90
10848;DHT22;5477;48.806;9.154;2024-02-21T09:30:10;9.90;99.90
10848;DHT22;5477;48.806;9.154;2024-02-21T09:32:38;9.90;99.90
10848;DHT22;5477;48.806;9.154;2024-02-21T09:35:07;9.90;99.90
10848;DHT22;5477;48.806;9.154;2024-02-21T09:37:35;10.10;99.90
10848;DHT22;5477;48.806;9.154;2024-02-21T09:40:05;10.20;99.90
10848;DHT22;5477;48.806;9.154;2024-02-21T09:42:37;10.40;99.90
10848;DHT22;5477;48.806;9.154;2024-02-21T09:45:11;10.50;99.90
10848;DHT22;5477;48.806;9.154;2024-02-21T09:47:50;10.60;99.90
10848;DHT22;5477;48.806;9.154;2024-02-21T09:50:23;10.90;99.90
10848;DHT22;5477;48.806;9.154;2024-02-21T09:52:53;11.30;99.90
10848;DHT22;5477;48.806;9.154;2024-02-21T09:55:23;11.40;99.90
10848;DHT22;5477;48.806;9.154;2024-02-21T09:57:53;11.60;99.90
10848;DHT22;5477;48.806;9.154;2024-02-21T10:00:22;11.70;99.90
10848;DHT22;5477;48.806;9.154;2024-02-21T10:02:50;11.90;99.90
10848;DHT22;5477;48.806;9.154;2024-02-21T10:05:19;12.00;99.90
10848;DHT22;5477;48.806;9.154;2024-02-21T10:07:48;12.20;99.90
10848;DHT22;5477;48.806;9.154;2024-02-21T10:10:17;12.30;99.90
10848;DHT22;5477;48.806;9.154;2024-02-21T10:12:49;12.40;99.90
10848;DHT22;5477;48.806;9.154;2024-02-21T10:15:21;12.60;99.90
10848;DHT22;5477;48.806;9.154;2024-02-21T10:17:59;12.60;99.90
10848;DHT22;5477;48.806;9.154;2024-02-21T10:20:27;12.60;99.90
10848;DHT22;5477;48.806;9.154;2024-02-21T10:23:02;12.80;99.90
10848;DHT22;5477;48.806;9.154;2024-02-21T10:25:35;12.80;99.90
10848;DHT22;5477;48.806;9.154;2024-02-21T10:28:05;13.00;99.90
10848;DHT22;5477;48.806;9.154;2024-02-21T10:30:34;13.00;99.90
10848;DHT22;5477;48.806;9.154;2024-02-21T10:33:02;13.00;99.50
10848;DHT22;5477;48.806;9.154;2024-02-21T10:35:32;13.10;99.60
10848;DHT22;5477;48.806;9.154;2024-02-21T10:38:00;13.20;99.50
10848;DHT22;5477;48.806;9.154;2024-02-21T10:40:30;13.30;98.80
10848;DHT22;5477;48.806;9.154;2024-02-21T10:43:00;13.20;98.80
10848;DHT22;5477;48.806;9.154;2024-02-21T10:45:30;13.10;98.60
10848;DHT22;5477;48.806;9.154;2024-02-21T10:48:08;13.00;98.50
10848;DHT22;5477;48.806;9.154;2024-02-21T10:50:47;13.00;98.70
10848;DHT22;5477;48.806;9.154;2024-02-21T10:53:29;13.00;98.10
10848;DHT22;5477;48.806;9.154;2024-02-21T10:56:13;13.00;98.20
10848;DHT22;5477;48.806;9.154;2024-02-21T10:58:44;13.00;98.80
10848;DHT22;5477;48.806;9.154;2024-02-21T11:01:14;13.00;98.30
10848;DHT22;5477;48.806;9.154;2024-02-21T11:03:45;13.00;97.40
10848;DHT22;5477;48.806;9.154;2024-02-21T11:06:15;13.10;97.70
10848;DHT22;5477;48.806;9.154;2024-02-21T11:08:44;13.10;97.60
10848;DHT22;5477;48.806;9.154;2024-02-21T11:11:12;13.20;97.70
10848;DHT22;5477;48.806;9.154;2024-02-21T11:14:07;13.40;97.10
10848;DHT22;5477;48.806;9.154;2024-02-21T11:16:36;13.60;96.60
10848;DHT22;5477;48.806;9.154;2024-02-21T11:19:08;13.60;96.20
10848;DHT22;5477;48.806;9.154;2024-02-21T11:21:38;13.70;95.90
10848;DHT22;5477;48.806;9.154;2024-02-21T11:24:08;13.80;95.20
10848;DHT22;5477;48.806;9.154;2024-02-21T11:26:37;13.90;95.20
10848;DHT22;5477;48.806;9.154;2024-02-21T11:29:05;13.80;94.60
10848;DHT22;5477;48.806;9.154;2024-02-21T11:31:39;13.80;94.30
10848;DHT22;5477;48.806;9.154;2024-02-21T11:34:11;13.90;93.90
10848;DHT22;5477;48.806;9.154;2024-02-21T11:36:48;14.00;92.90
10848;DHT22;5477;48.806;9.154;2024-02-21T11:39:21;14.10;92.20
10848;DHT22;5477;48.806;9.154;2024-02-21T11:42:03;14.10;92.40
10848;DHT22;5477;48.806;9.154;2024-02-21T11:44:32;13.90;91.90
10848;DHT22;5477;48.806;9.154;2024-02-21T11:47:00;13.90;91.70
10848;DHT22;5477;48.806;9.154;2024-02-21T11:49:30;13.90;91.80
10848;DHT22;5477;48.806;9.154;2024-02-21T11:51:59;13.90;91.70
10848;DHT22;5477;48.806;9.154;2024-02-21T11:54:27;14.00;91.80
10848;DHT22;5477;48.806;9.154;2024-02-21T11:56:56;14.10;91.10
10848;DHT22;5477;48.806;9.154;2024-02-21T11:59:25;14.00;90.20
10848;DHT22;5477;48.806;9.154;2024-02-21T12:01:53;14.00;89.10
10848;DHT22;5477;48.806;9.154;2024-02-21T12:04:21;13.80;89.70
10848;DHT22;5477;48.806;9.154;2024-02-21T12:06:52;13.80;90.10
10848;DHT22;5477;48.806;9.154;2024-02-21T12:09:23;13.90;90.20
10848;DHT22;5477;48.806;9.154;2024-02-21T12:11:58;14.00;90.00
10848;DHT22;5477;48.806;9.154;2024-02-21T12:14:29;13.90;89.20
10848;DHT22;5477;48.806;9.154;2024-02-21T12:16:57;13.80;89.30
10848;DHT22;5477;48.806;9.154;2024-02-21T12:19:28;13.90;89.90
10848;DHT22;5477;48.806;9.154;2024-02-21T12:21:59;14.20;90.10
10848;DHT22;5477;48.806;9.154;2024-02-21T12:24:28;14.30;89.70
10848;DHT22;5477;48.806;9.154;2024-02-21T12:26:57;14.30;90.00
10848;DHT22;5477;48.806;9.154;2024-02-21T12:29:26;14.40;90.00
10848;DHT22;5477;48.806;9.154;2024-02-21T12:31:55;14.60;89.60
10848;DHT22;5477;48.806;9.154;2024-02-21T12:34:24;14.70;88.20
10848;DHT22;5477;48.806;9.154;2024-02-21T12:37:11;14.80;87.50
10848;DHT22;5477;48.806;9.154;2024-02-21T12:39:40;14.90;87.50
10848;DHT22;5477;48.806;9.154;2024-02-21T12:42:08;14.80;85.70
10848;DHT22;5477;48.806;9.154;2024-02-21T12:44:38;14.70;85.80
10848;DHT22;5477;48.806;9.154;2024-02-21T12:47:06;14.60;86.70
10848;DHT22;5477;48.806;9.154;2024-02-21T12:49:35;14.60;85.90
10848;DHT22;5477;48.806;9.154;2024-02-21T12:52:05;14.50;86.10
10848;DHT22;5477;48.806;9.154;2024-02-21T12:54:35;14.50;87.10
10848;DHT22;5477;48.806;9.154;2024-02-21T12:57:03;14.60;86.20
10848;DHT22;5477;48.806;9.154;2024-02-21T12:59:31;14.70;85.30
10848;DHT22;5477;48.806;9.154;2024-02-21T13:01:59;14.60;86.00
10848;DHT22;5477;48.806;9.154;2024-02-21T13:04:27;14.60;84.70
10848;DHT22;5477;48.806;9.154;2024-02-21T13:06:56;14.60;84.00
10848;DHT22;5477;48.806;9.154;2024-02-21T13:09:24;14.50;84.60
10848;DHT22;5477;48.806;9.154;2024-02-21T13:11:54;14.60;85.20
10848;DHT22;5477;48.806;9.154;2024-02-21T13:14:23;14.70;85.60
10848;DHT22;5477;48.806;9.154;2024-02-21T13:16:51;14.80;85.30
10848;DHT22;5477;48.806;9.154;2024-02-21T13:19:19;14.80;84.00
10848;DHT22;5477;48.806;9.154;2024-02-21T13:21:47;14.80;83.40
10848;DHT22;5477;48.806;9.154;2024-02-21T13:24:16;14.80;83.00
10848;DHT22;5477;48.806;9.154;2024-02-21T13:26:44;14.60;82.80
10848;DHT22;5477;48.806;9.154;2024-02-21T13:29:13;14.60;83.80
10848;DHT22;5477;48.806;9.154;2024-02-21T13:31:41;14.60;83.60
10848;DHT22;5477;48.806;9.154;2024-02-21T13:34:09;14.70;82.30
10848;DHT22;5477;48.806;9.154;2024-02-21T13:36:38;14.70;81.60
10848;DHT22;5477;48.806;9.154;2024-02-21T13:39:06;14.60;81.90
10848;DHT22;5477;48.806;9.154;2024-02-21T13:41:39;14.60;81.70
10848;DHT22;5477;48.806;9.154;2024-02-21T13:44:07;14.60;81.00
10848;DHT22;5477;48.806;9.154;2024-02-21T13:46:38;14.60;81.00
10848;DHT22;5477;48.806;9.154;2024-02-21T13:49:06;14.60;82.00
10848;DHT22;5477;48.806;9.154;2024-02-21T13:51:34;14.60;80.70
10848;DHT22;5477;48.806;9.154;2024-02-21T13:54:03;14.60;79.70
10848;DHT22;5477;48.806;9.154;2024-02-21T13:56:32;14.50;79.20
10848;DHT22;5477;48.806;9.154;2024-02-21T13:59:01;14.40;78.20
10848;DHT22;5477;48.806;9.154;2024-02-21T14:01:30;14.40;80.50
10848;DHT22;5477;48.806;9.154;2024-02-21T14:04:00;14.30;78.20
10848;DHT22;5477;48.806;9.154;2024-02-21T14:06:28;14.20;78.30
10848;DHT22;5477;48.806;9.154;2024-02-21T14:08:56;14.30;77.40
10848;DHT22;5477;48.806;9.154;2024-02-21T14:11:24;14.30;76.60
10848;DHT22;5477;48.806;9.154;2024-02-21T14:13:53;14.20;76.50
10848;DHT22;5477;48.806;9.154;2024-02-21T14:16:24;14.20;77.20
10848;DHT22;5477;48.806;9.154;2024-02-21T14:18:53;14.20;77.10
10848;DHT22;5477;48.806;9.154;2024-02-21T14:21:23;14.20;77.30
10848;DHT22;5477;48.806;9.154;2024-02-21T14:23:51;14.20;76.60
10848;DHT22;5477;48.806;9.154;2024-02-21T14:26:19;14.20;77.10
10848;DHT22;5477;48.806;9.154;2024-02-21T14:28:48;14.20;76.40
10848;DHT22;5477;48.806;9.154;2024-02-21T14:31:16;14.10;76.60
10848;DHT22;5477;48.806;9.154;2024-02-21T14:33:45;14.10;75.80
10848;DHT22;5477;48.806;9.154;2024-02-21T14:36:14;13.90;75.00
10848;DHT22;5477;48.806;9.154;2024-02-21T14:38:44;13.90;75.90
10848;DHT22;5477;48.806;9.154;2024-02-21T14:41:12;13.90;73.90
10848;DHT22;5477;48.806;9.154;2024-02-21T14:43:40;13.90;73.80
10848;DHT22;5477;48.806;9.154;2024-02-21T14:46:11;13.90;73.90
10848;DHT22;5477;48.806;9.154;2024-02-21T14:48:39;13.90;73.40
10848;DHT22;5477;48.806;9.154;2024-02-21T14:51:07;14.00;72.70
10848;DHT22;5477;48.806;9.154;2024-02-21T14:53:35;13.90;73.20
10848;DHT22;5477;48.806;9.154;2024-02-21T14:56:12;14.00;73.30
10848;DHT22;5477;48.806;9.154;2024-02-21T14:58:42;14.00;72.90
10848;DHT22;5477;48.806;9.154;2024-02-21T15:01:10;13.90;72.50
10848;DHT22;5477;48.806;9.154;2024-02-21T15:03:40;13.90;72.30
10848;DHT22;5477;48.806;9.154;2024-02-21T15:06:09;13.90;71.60
10848;DHT22;5477;48.806;9.154;2024-02-21T15:08:38;13.80;71.30
10848;DHT22;5477;48.806;9.154;2024-02-21T15:11:08;13.80;70.40
10848;DHT22;5477;48.806;9.154;2024-02-21T15:13:36;13.70;70.80
10848;DHT22;5477;48.806;9.154;2024-02-21T15:16:05;13.70;69.40
10848;DHT22;5477;48.806;9.154;2024-02-21T15:18:33;13.60;69.10
10848;DHT22;5477;48.806;9.154;2024-02-21T15:21:04;13.60;70.30
10848;DHT22;5477;48.806;9.154;2024-02-21T15:23:34;13.70;69.40
10848;DHT22;5477;48.806;9.154;2024-02-21T15:26:02;13.60;68.90
10848;DHT22;5477;48.806;9.154;2024-02-21T15:28:31;13.70;69.30
10848;DHT22;5477;48.806;9.154;2024-02-21T15:30:59;13.70;69.60
10848;DHT22;5477;48.806;9.154;2024-02-21T15:33:27;13.80;69.10
10848;DHT22;5477;48.806;9.154;2024-02-21T15:35:56;13.80;68.50
10848;DHT22;5477;48.806;9.154;2024-02-21T15:38:24;13.80;68.90
10848;DHT22;5477;48.806;9.154;2024-02-21T15:40:52;13.90;68.50
10848;DHT22;5477;48.806;9.154;2024-02-21T15:43:20;13.90;69.00
10848;DHT22;5477;48.806;9.154;2024-02-21T15:45:52;13.90;69.30
10848;DHT22;5477;48.806;9.154;2024-02-21T15:48:20;13.90;68.70
10848;DHT22;5477;48.806;9.154;2024-02-21T15:50:52;13.80;68.10
10848;DHT22;5477;48.806;9.154;2024-02-21T15:53:21;13.70;67.50
10848;DHT22;5477;48.806;9.154;2024-02-21T15:55:49;13.60;68.10
10848;DHT22;5477;48.806;9.154;2024-02-21T15:58:17;13.60;70.20
10848;DHT22;5477;48.806;9.154;2024-02-21T16:00:47;13.60;72.80
10848;DHT22;5477;48.806;9.154;2024-02-21T16:03:17;13.60;73.90
10848;DHT22;5477;48.806;9.154;2024-02-21T16:05:45;13.60;75.40
10848;DHT22;5477;48.806;9.154;2024-02-21T16:08:13;13.70;76.20
10848;DHT22;5477;48.806;9.154;2024-02-21T16:10:45;13.60;77.90